Latest Weather Observations for Camden

IDN60801

Issued at 3:35 pm EDT Monday 24 November 2014 (issued every 30 minutes, with the page automatically refreshed every 10 minutes)

About weather observations | Map of weather stations | Latest weather observations for NSW | Other Formats
Station Details ID: 068192 Name: CAMDEN AIRPORT AWS Lat: -34.04 Lon: 150.69 Height: 73.9 m
Data from the previous 72 hours. | See also: Recent months at Camden
Date/Time
EDT
Temp
°C
App
Temp
°C
Dew
Point
Rel
Hum
%
Delta-T
°C
Wind Press
QNH
hPa
Press
MSL
hPa
Rain
since 9 am
mm
Dir
 
Spd
km/h
Gust
km/h
Spd
kts
Gust
kts
24/03:30pm 24.6 26.3 20.9 80 2.4 W 13 19 7 10 1008.3 1008.1 4.4
24/03:27pm 24.7 26.1 21.0 80 2.4 W 15 28 8 15 1008.2 1008.0 4.4
24/03:08pm 27.6 26.4 18.3 57 6.0 WNW 22 26 12 14 1007.9 1007.7 2.6
24/03:00pm 31.8 31.6 15.7 37 10.1 NNE 11 19 6 10 1006.8 1006.6 0.0
24/02:30pm 32.4 33.0 15.8 36 10.4 N 7 13 4 7 1007.0 1006.8 0.0
24/02:00pm 33.8 34.1 17.9 38 10.3 NNE 13 22 7 12 1007.6 1007.4 0.0
24/01:30pm 32.2 33.0 17.3 41 9.5 E 9 17 5 9 1008.7 1008.5 0.0
24/01:00pm 30.9 31.7 17.2 43 8.7 E 9 13 5 7 1009.6 1009.4 0.0
24/12:30pm 29.5 30.5 17.7 49 7.5 NNE 9 20 5 11 1010.5 1010.3 0.0
24/12:00pm 28.8 30.5 18.6 54 6.6 E 7 11 4 6 1011.5 1011.3 0.0
24/11:30am 27.3 28.3 17.8 56 6.0 S 9 15 5 8 1012.1 1011.9 0.0
24/11:00am 26.2 28.0 18.3 61 5.0 S 6 13 3 7 1013.2 1013.0 0.0
24/10:42am 25.1 26.5 17.8 64 4.6 NNW 7 13 4 7 1013.8 1013.6 0.0
24/10:30am 24.5 25.9 17.7 66 4.3 W 7 11 4 6 1014.0 1013.8 0.0
24/10:00am 23.5 25.0 17.7 70 3.6 S 6 9 3 5 1014.6 1014.4 0.0
24/09:30am 22.4 23.1 17.1 72 3.3 ENE 9 15 5 8 1015.0 1014.8 0.0
24/09:00am 21.5 22.4 17.5 78 2.5 E 9 13 5 7 1015.6 1015.3 0.2
24/08:30am 21.2 21.7 17.4 79 2.3 ENE 11 17 6 9 1015.7 1015.4 0.2
24/08:00am 20.9 20.9 17.3 80 2.2 NE 13 19 7 10 1015.5 1015.2 0.2
24/07:30am 21.0 20.0 17.6 81 2.1 NE 19 22 10 12 1014.7 1014.5 0.2
24/07:00am 21.2 20.6 18.4 84 1.8 NNE 19 24 10 13 1014.1 1013.9 0.2
24/06:45am 21.2 21.1 18.8 86 1.5 N 17 28 9 15 1014.0 1013.8 0.2
24/06:30am 21.1 21.1 18.9 87 1.4 NNE 17 26 9 14 1013.0 1012.8 0.2
24/06:00am 21.4 22.6 19.1 87 1.5 NNE 11 13 6 7 1012.0 1011.8 0.2
24/05:30am 20.4 22.3 18.9 91 0.9 ESE 7 13 4 7 1011.5 1011.3 0.2
24/05:06am 20.4 21.7 19.2 93 0.8 SSE 11 15 6 8 1011.3 1011.1 0.2
24/05:00am 20.3 21.9 19.1 93 0.8 S 9 13 5 7 1011.3 1011.1 0.2
24/04:54am 20.3 22.3 19.1 93 0.8 SSW 7 9 4 5 1011.6 1011.4 0.2
24/04:50am 20.3 22.4 19.3 94 0.6 S 7 9 4 5 1011.8 1011.6 0.2
24/04:30am 20.5 22.3 19.5 94 0.6 ESE 9 11 5 6 1011.8 1011.6 0.2
24/04:16am 20.2 22.3 19.0 93 0.8 ENE 6 9 3 5 1012.2 1012.0 0.2
24/04:02am 20.4 23.1 19.4 94 0.6 SW 4 7 2 4 1012.3 1012.1 0.2
24/04:00am 20.3 22.5 19.3 94 0.6 SW 6 11 3 6 1012.2 1012.0 0.2
24/03:33am 20.1 22.1 18.8 92 0.8 NW 6 6 3 3 1012.1 1011.9 0.2
24/03:30am 20.2 22.3 18.9 92 0.8 NNW 6 9 3 5 1012.0 1011.8 0.2
24/03:00am 20.0 22.6 18.3 90 1.1 WNW 2 6 1 3 1011.7 1011.5 0.2
24/02:30am 20.9 24.0 18.7 87 1.4 CALM 0 0 0 0 1012.5 1012.3 0.2
24/02:00am 21.2 22.8 19.1 88 1.3 ESE 9 15 5 8 1012.5 1012.3 0.2
24/01:30am 21.4 23.5 19.0 86 1.5 SSE 6 9 3 5 1013.2 1013.0 0.2
24/01:00am 21.6 23.3 19.3 87 1.5 S 9 11 5 6 1013.6 1013.4 0.0
24/12:30am 21.9 24.1 19.1 84 1.8 NW 6 13 3 7 1014.3 1014.1 0.0
24/12:00am 22.0 24.7 19.4 85 1.7 N 4 11 2 6 1013.9 1013.7 0.0
 
Date/Time
EDT
Temp
°C
App
Temp
°C
Dew
Point
Rel
Hum
%
Delta-T
°C
Wind Press
QNH
hPa
Press
MSL
hPa
Rain
since 9 am
mm
Dir
 
Spd
km/h
Gust
km/h
Spd
kts
Gust
kts
23/11:30pm 22.2 23.7 19.0 82 2.0 ENE 9 13 5 7 1013.8 1013.6 0.0
23/11:00pm 22.4 22.3 18.8 80 2.3 NNE 17 20 9 11 1013.7 1013.5 0.0
23/10:30pm 22.5 23.2 18.9 80 2.3 N 13 19 7 10 1014.2 1014.0 0.0
23/10:00pm 22.7 23.9 19.1 80 2.3 N 11 13 6 7 1013.2 1013.0 0.0
23/09:30pm 22.7 24.8 19.3 81 2.2 NNW 7 13 4 7 1013.0 1012.8 0.0
23/09:00pm 22.8 24.0 19.0 79 2.4 NE 11 15 6 8 1012.4 1012.2 0.0
23/08:30pm 23.8 23.8 18.9 74 3.1 E 17 26 9 14 1011.8 1011.6 0.0
23/08:00pm 23.8 24.6 19.1 75 3.0 ENE 13 17 7 9 1011.9 1011.7 0.0
23/07:30pm 25.1 25.9 18.1 65 4.4 SSE 11 17 6 9 1010.6 1010.4 0.0
23/07:00pm 26.4 25.4 17.5 58 5.6 SSE 19 24 10 13 1009.9 1009.7 0.0
23/06:39pm 28.1 25.1 16.7 50 7.1 S 28 43 15 23 1009.5 1009.3 0.0
23/06:30pm 28.8 29.1 17.0 49 7.4 ESE 11 19 6 10 1008.9 1008.7 0.0
23/06:00pm 30.3 29.2 17.4 46 8.2 SE 19 24 10 13 1007.5 1007.3 0.0
23/05:30pm 32.4 31.3 17.8 41 9.4 SE 20 32 11 17 1006.6 1006.4 0.0
23/05:00pm 35.0 33.3 17.2 34 11.5 ENE 22 28 12 15 1005.8 1005.6 0.0
23/04:30pm 36.9 33.6 18.0 33 12.4 ENE 32 39 17 21 1005.6 1005.4 0.0
23/04:00pm 38.2 36.4 17.0 28 13.8 E 22 32 12 17 1006.0 1005.8 0.0
23/03:30pm 38.3 37.1 17.1 28 13.8 E 19 26 10 14 1006.1 1005.9 0.0
23/03:00pm 39.3 38.6 17.4 27 14.3 ENE 17 20 9 11 1006.4 1006.2 0.0
23/02:30pm 38.9 38.8 15.9 25 14.7 NNE 11 15 6 8 1007.1 1006.9 0.0
23/02:00pm 38.4 38.0 16.1 27 14.3 ENE 13 19 7 10 1007.6 1007.4 0.0
23/01:30pm 39.6 37.5 14.6 23 15.8 NNE 19 26 10 14 1007.8 1007.6 0.0
23/01:00pm 37.7 35.5 14.3 25 14.6 NNE 19 28 10 15 1008.5 1008.3 0.0
23/12:30pm 37.4 36.7 16.4 29 13.5 NE 15 26 8 14 1009.0 1008.8 0.0
23/12:00pm 36.2 35.3 15.9 30 12.9 N 15 20 8 11 1009.6 1009.4 0.0
23/11:30am 34.1 33.9 14.6 31 12.1 ENE 9 15 5 8 1010.2 1010.0 0.0
23/11:00am 33.0 32.8 14.6 33 11.4 NNE 9 17 5 9 1010.5 1010.3 0.0
23/10:30am 31.5 31.9 16.3 40 9.6 E 9 13 5 7 1010.7 1010.5 0.0
23/10:00am 28.8 30.1 17.0 49 7.4 ENE 6 9 3 5 1010.9 1010.7 0.0
23/09:30am 26.1 27.7 16.9 57 5.7 SW 4 7 2 4 1011.3 1011.1 0.0
23/09:00am 24.4 25.9 16.6 61 4.8 N 4 6 2 3 1011.5 1011.3 0.0
23/08:30am 22.4 24.5 16.2 68 3.8 CALM 0 0 0 0 1011.7 1011.5 0.0
23/08:00am 20.9 22.5 16.9 78 2.4 W 4 7 2 4 1011.7 1011.5 0.0
23/07:30am 19.3 21.6 16.7 85 1.6 CALM 0 0 0 0 1011.5 1011.3 0.0
23/07:00am 17.9 20.0 17.1 95 0.5 W 2 9 1 5 1011.5 1011.3 0.0
23/06:30am 16.8 17.8 16.3 97 0.3 SSE 6 9 3 5 1011.0 1010.8 0.0
23/06:00am 16.1 17.5 15.5 96 0.4 ENE 2 7 1 4 1011.1 1010.9 0.0
23/05:30am 16.7 18.0 16.2 97 0.3 N 4 9 2 5 1011.2 1011.0 0.0
23/05:20am 16.6 18.6 16.1 97 0.3 CALM 0 0 0 0 1011.1 1010.9 0.0
23/05:06am 16.6 18.6 16.1 97 0.3 CALM 0 0 0 0 1010.7 1010.5 0.0
23/05:00am 16.5 18.1 16.0 97 0.3 NNW 2 6 1 3 1010.5 1010.3 0.0
23/04:30am 16.6 18.3 16.3 98 0.2 S 2 6 1 3 1010.6 1010.4 0.0
23/04:28am 16.5 18.2 16.2 98 0.2 S 2 6 1 3 1010.7 1010.5 0.0
23/04:00am 16.5 18.5 16.0 97 0.3 CALM 0 0 0 0 1010.9 1010.7 0.0
23/03:46am 16.5 18.5 15.9 96 0.4 CALM 0 0 0 0 1011.0 1010.8 0.0
23/03:34am 16.6 18.5 15.8 95 0.5 CALM 0 0 0 0 1010.9 1010.7 0.0
23/03:30am 16.6 18.5 15.8 95 0.5 CALM 0 0 0 0 1011.0 1010.8 0.0
23/03:13am 16.5 18.3 15.5 94 0.6 CALM 0 0 0 0 1011.0 1010.8 0.0
23/03:00am 16.6 18.5 15.8 95 0.5 CALM 0 0 0 0 1011.2 1011.0 0.0
23/02:30am 16.8 18.8 16.0 95 0.5 CALM 0 0 0 0 1011.3 1011.1 0.0
23/02:00am 17.1 19.1 16.1 94 0.6 CALM 0 0 0 0 1011.7 1011.5 0.0
23/01:30am 17.1 19.0 15.8 92 0.8 CALM 0 0 0 0 1012.2 1012.0 0.0
23/01:00am 17.5 18.7 16.0 91 0.9 S 4 6 2 3 1012.3 1012.1 0.0
23/12:30am 17.7 18.4 16.2 91 0.9 S 7 7 4 4 1012.7 1012.5 0.0
23/12:00am 18.4 20.3 16.6 89 1.1 W 2 6 1 3 1013.2 1013.0 0.0
 
Date/Time
EDT
Temp
°C
App
Temp
°C
Dew
Point
Rel
Hum
%
Delta-T
°C
Wind Press
QNH
hPa
Press
MSL
hPa
Rain
since 9 am
mm
Dir
 
Spd
km/h
Gust
km/h
Spd
kts
Gust
kts
22/11:30pm 18.4 19.4 16.4 88 1.2 W 6 7 3 4 1013.4 1013.2 0.0
22/11:00pm 18.7 20.7 16.1 85 1.6 CALM 0 6 0 3 1013.4 1013.2 0.0
22/10:30pm 19.1 20.5 16.3 84 1.7 NNE 4 7 2 4 1013.5 1013.3 0.0
22/10:00pm 19.9 22.0 16.3 80 2.2 CALM 0 0 0 0 1013.5 1013.3 0.0
22/09:30pm 20.3 21.6 16.1 77 2.5 NE 4 7 2 4 1013.4 1013.2 0.0
22/09:00pm 20.8 21.6 16.4 76 2.7 E 7 11 4 6 1012.9 1012.7 0.0
22/08:30pm 21.2 21.6 16.2 73 3.0 E 9 11 5 6 1012.5 1012.3 0.0
22/08:00pm 22.1 22.0 15.9 68 3.7 NE 11 15 6 8 1012.1 1011.9 0.0
22/07:30pm 22.9 22.5 16.2 66 4.1 NE 13 17 7 9 1011.7 1011.5 0.0
22/07:00pm 23.4 22.4 15.7 62 4.7 NE 15 17 8 9 1011.4 1011.2 0.0
22/06:30pm 24.6 23.6 15.5 57 5.5 ENE 15 19 8 10 1011.0 1010.8 0.0
22/06:00pm 25.9 24.1 15.6 53 6.3 NE 19 22 10 12 1010.5 1010.3 0.0
22/05:30pm 26.4 24.5 15.1 49 6.8 ENE 19 28 10 15 1010.2 1010.0 0.0
22/05:00pm 27.5 25.6 15.2 47 7.5 ENE 19 28 10 15 1010.0 1009.8 0.0
22/04:30pm 28.5 26.6 15.1 44 8.2 ENE 19 28 10 15 1009.9 1009.7 0.0
22/04:00pm 29.2 27.5 14.6 41 8.9 E 17 24 9 13 1010.0 1009.8 0.0
22/03:30pm 31.3 29.5 14.4 35 10.3 NE 17 24 9 13 1009.9 1009.7 0.0
22/03:00pm 30.8 29.1 13.6 35 10.4 NE 15 22 8 12 1010.2 1010.0 0.0
22/02:30pm 29.9 28.2 13.6 36 9.8 NE 15 22 8 12 1011.0 1010.8 0.0
22/02:00pm 29.3 28.2 13.1 37 9.6 N 11 19 6 10 1011.7 1011.5 0.0
22/01:30pm 29.3 27.9 13.5 38 9.4 N 13 19 7 10 1012.4 1012.2 0.0
22/01:00pm 27.5 25.5 12.7 40 8.7 ENE 15 26 8 14 1012.9 1012.7 0.0
22/12:30pm 27.2 25.4 12.0 38 8.8 N 13 20 7 11 1013.4 1013.2 0.0
22/12:00pm 27.3 25.5 13.3 42 8.3 N 15 22 8 12 1013.8 1013.6 0.0
22/11:30am 26.2 25.3 12.6 43 7.9 NNE 9 17 5 9 1014.3 1014.1 0.0
22/11:00am 25.2 24.2 12.4 45 7.4 N 9 17 5 9 1014.8 1014.6 0.0
22/10:30am 24.6 22.7 11.9 45 7.2 NNE 13 22 7 12 1015.1 1014.9 0.0
22/10:00am 23.9 22.2 12.5 49 6.5 N 13 20 7 11 1015.1 1014.9 0.0
22/09:30am 23.3 22.8 12.0 49 6.4 NE 6 15 3 8 1016.2 1015.9 0.0
22/09:00am 20.9 21.0 12.6 59 4.7 W 4 9 2 5 1016.6 1016.4 0.0
22/08:30am 21.5 22.0 12.9 58 4.9 NNE 2 6 1 3 1016.2 1015.9 0.0
22/08:00am 20.8 20.2 13.5 63 4.2 E 9 13 5 7 1016.0 1015.7 0.0
22/07:30am 20.7 21.2 14.1 66 3.8 ESE 4 9 2 5 1016.2 1015.9 0.0
22/07:00am 19.1 20.3 13.7 71 3.1 CALM 0 0 0 0 1016.1 1015.8 0.0
22/06:30am 17.1 18.2 13.6 80 2.0 CALM 0 0 0 0 1015.7 1015.4 0.0
22/06:00am 16.8 17.7 14.1 84 1.5 SE 2 6 1 3 1015.2 1015.0 0.0
22/05:30am 16.7 17.8 13.4 81 1.9 CALM 0 0 0 0 1014.9 1014.7 0.0
22/05:00am 17.2 17.0 13.7 80 2.0 SSE 7 9 4 5 1014.4 1014.2 0.0
22/04:30am 17.9 17.3 13.6 76 2.4 ESE 9 11 5 6 1014.2 1014.0 0.0
22/04:00am 19.0 19.4 13.6 71 3.1 SE 4 7 2 4 1014.2 1014.0 0.0
22/03:30am 19.4 19.3 14.0 71 3.1 SSE 7 7 4 4 1014.1 1013.9 0.0
22/03:00am 19.6 19.8 14.6 73 2.9 SE 7 15 4 8 1014.2 1014.0 0.0
22/02:30am 19.7 19.5 14.7 73 2.9 SSE 9 15 5 8 1014.2 1014.0 0.0
22/02:00am 19.7 19.9 14.7 73 2.9 SSE 7 15 4 8 1014.4 1014.2 0.0
22/01:30am 19.6 19.8 14.8 74 2.8 ESE 7 11 4 6 1014.4 1014.2 0.0
22/01:00am 19.7 19.1 14.7 73 2.9 SSE 11 15 6 8 1014.6 1014.4 0.0
22/12:30am 19.8 18.8 14.6 72 3.0 SSE 13 19 7 10 1014.8 1014.6 0.0
22/12:00am 20.2 19.3 14.8 71 3.2 S 13 19 7 10 1014.8 1014.6 0.0
 
Date/Time
EDT
Temp
°C
App
Temp
°C
Dew
Point
Rel
Hum
%
Delta-T
°C
Wind Press
QNH
hPa
Press
MSL
hPa
Rain
since 9 am
mm
Dir
 
Spd
km/h
Gust
km/h
Spd
kts
Gust
kts
21/11:30pm 20.5 19.7 15.1 71 3.2 SSE 13 19 7 10 1014.7 1014.5 0.0
21/11:00pm 20.6 18.7 15.2 71 3.2 S 19 28 10 15 1014.6 1014.4 0.0
21/10:30pm 20.8 19.4 15.6 72 3.1 S 17 26 9 14 1014.2 1014.0 0.0
21/10:00pm 20.6 19.2 15.6 73 3.0 S 17 24 9 13 1013.9 1013.7 0.0
21/09:30pm 20.8 19.8 15.6 72 3.1 S 15 24 8 13 1013.5 1013.3 0.0
21/09:00pm 21.2 19.9 15.7 71 3.3 S 17 28 9 15 1012.8 1012.6 0.0
21/08:30pm 21.5 20.2 15.8 70 3.4 S 17 26 9 14 1011.9 1011.7 0.0
21/08:00pm 22.2 20.5 14.8 63 4.4 S 17 30 9 16 1011.1 1010.9 0.0
21/07:30pm 23.1 20.8 14.1 57 5.3 SSE 19 28 10 15 1010.0 1009.8 0.0
21/07:00pm 24.2 20.2 13.1 50 6.5 SSE 26 43 14 23 1009.1 1008.9 0.0
21/06:30pm 26.3 23.3 14.7 48 7.0 SE 24 35 13 19 1007.7 1007.5 0.0
21/06:15pm 26.9 22.9 14.0 45 7.7 SE 28 46 15 25 1007.0 1006.8 0.0
21/06:05pm 30.3 25.0 11.3 31 11.0 SSE 30 44 16 24 1006.5 1006.3 0.0
21/06:00pm 35.9 31.4 7.0 17 16.1 WSW 20 28 11 15 1005.9 1005.7 0.0
21/05:30pm 36.7 31.8 4.9 14 17.2 W 20 30 11 16 1005.3 1005.1 0.0
21/05:00pm 37.1 30.3 5.2 14 17.4 W 30 44 16 24 1005.1 1004.9 0.0
21/04:30pm 38.4 32.5 4.0 12 18.5 WNW 24 35 13 19 1004.8 1004.6 0.0
21/04:00pm 37.9 30.8 3.6 12 18.3 WNW 30 56 16 30 1004.7 1004.5 0.0

Other Formats:

Comma delimited format used in spreadsheet applications
http://www.bom.gov.au/fwo/IDN60801/IDN60801.94755.axf

JavaScript Object Notation format (JSON) in row-major order
http://www.bom.gov.au/fwo/IDN60801/IDN60801.94755.json